Terminal Aerodrome Forecast
Issued by NWS

Home | Current Version | Previous Version | Text Only | Print | Product List | Glossary Off
Versions: 1 2 3 4 5 6 7 8 9 10 11 12 13 14

000
FTUS43 KPAH 221000 AAB
TAFCGI
TAF AMD
KCGI 221012Z 2210/2306 00000KT P6SM SKC
     FM221400 06007KT P6SM SKC
     FM230000 00000KT P6SM SKC=

USA.gov is the U.S. government's official web portal to all federal, state and local government web resources and services.